createdAt,value
2018-08-12T00:01:23.347Z,77.11
2018-08-12T00:03:51.598Z,77.65
2018-08-12T00:06:18.830Z,77.99
2018-08-12T00:08:46.178Z,77.77
2018-08-12T00:11:13.437Z,77.36
2018-08-12T00:13:40.737Z,77.80
2018-08-12T00:16:08.265Z,79.40
2018-08-12T00:18:35.769Z,77.76
2018-08-12T00:21:03.167Z,78.83
2018-08-12T00:23:30.387Z,77.37
2018-08-12T00:25:58.246Z,77.43
2018-08-12T00:28:25.467Z,80.00
2018-08-12T00:30:52.761Z,77.27
2018-08-12T00:33:20.173Z,79.31
2018-08-12T00:35:47.590Z,77.20
2018-08-12T00:38:15.215Z,77.06
2018-08-12T00:40:42.773Z,77.42
2018-08-12T00:43:10.147Z,77.23
2018-08-12T00:45:37.379Z,76.73
2018-08-12T00:48:04.996Z,76.67
2018-08-12T00:50:32.239Z,76.80
2018-08-12T00:52:59.498Z,76.25
2018-08-12T00:55:27.226Z,75.91
2018-08-12T00:57:54.558Z,76.48
2018-08-12T01:00:22.543Z,75.35
2018-08-12T01:02:49.810Z,74.72
2018-08-12T01:05:17.856Z,75.46
2018-08-12T01:07:46.045Z,75.50
2018-08-12T01:10:13.674Z,74.85
2018-08-12T01:12:40.992Z,74.95
2018-08-12T01:15:15.969Z,74.48
2018-08-12T01:17:43.557Z,74.68
2018-08-12T01:20:12.712Z,75.29
2018-08-12T01:22:40.331Z,75.40
2018-08-12T01:25:08.689Z,74.92
2018-08-12T01:27:35.953Z,75.18
2018-08-12T01:30:04.260Z,74.79
2018-08-12T01:32:31.628Z,74.89
2018-08-12T01:34:58.891Z,74.92
2018-08-12T01:37:26.146Z,75.05
2018-08-12T01:39:53.373Z,75.24
2018-08-12T01:42:20.621Z,75.37
2018-08-12T01:44:47.935Z,75.51
2018-08-12T01:47:15.159Z,75.47
2018-08-12T01:49:42.421Z,75.86
2018-08-12T01:52:09.651Z,76.57
2018-08-12T01:54:37.006Z,76.05
2018-08-12T01:57:04.373Z,75.79
2018-08-12T01:59:31.600Z,76.23
2018-08-12T02:01:58.813Z,75.90
2018-08-12T02:04:26.070Z,75.90
2018-08-12T02:06:53.302Z,75.69
2018-08-12T02:09:20.563Z,75.71
2018-08-12T02:11:48.371Z,76.74
2018-08-12T02:14:15.608Z,76.26
2018-08-12T02:16:42.856Z,76.93
2018-08-12T02:19:10.077Z,76.34
2018-08-12T02:21:37.325Z,76.85
2018-08-12T02:24:04.577Z,76.57
2018-08-12T02:26:31.812Z,76.57
2018-08-12T02:28:59.046Z,76.36
2018-08-12T02:31:26.398Z,76.35
2018-08-12T02:33:53.753Z,76.81
2018-08-12T02:36:21.061Z,76.63
2018-08-12T02:38:49.177Z,77.03
2018-08-12T02:41:16.464Z,77.15
2018-08-12T02:43:44.433Z,76.72
2018-08-12T02:46:11.645Z,76.68
2018-08-12T02:48:38.877Z,76.85
2018-08-12T02:51:06.833Z,76.77
2018-08-12T02:53:34.577Z,76.95
2018-08-12T02:56:01.876Z,77.21
2018-08-12T02:58:29.174Z,77.10
2018-08-12T03:00:56.529Z,77.00
2018-08-12T03:03:24.490Z,77.22
2018-08-12T03:05:51.768Z,76.94
2018-08-12T03:08:18.972Z,77.47
2018-08-12T03:10:46.913Z,78.16
2018-08-12T03:13:14.213Z,77.98
2018-08-12T03:15:41.578Z,77.22
2018-08-12T03:18:08.851Z,77.31
2018-08-12T03:20:36.148Z,77.38
2018-08-12T03:23:03.476Z,77.43
2018-08-12T03:25:30.806Z,77.89
2018-08-12T03:27:58.079Z,77.47
2018-08-12T03:30:25.412Z,77.48
2018-08-12T03:32:52.646Z,77.58
2018-08-12T03:35:19.869Z,77.29
2018-08-12T03:37:47.151Z,77.53
2018-08-12T03:40:14.359Z,77.41
2018-08-12T03:42:42.261Z,77.58
2018-08-12T03:45:09.792Z,77.81
2018-08-12T03:47:37.704Z,77.83
2018-08-12T03:50:05.366Z,78.10
2018-08-12T03:52:32.725Z,77.80
2018-08-12T03:55:00.747Z,78.08
2018-08-12T03:57:28.110Z,78.20
2018-08-12T03:59:55.424Z,78.62
2018-08-12T04:02:22.872Z,78.47
2018-08-12T04:04:50.105Z,79.17
2018-08-12T04:07:17.477Z,78.30
2018-08-12T04:09:44.826Z,78.40
2018-08-12T04:12:12.047Z,78.89
2018-08-12T04:14:39.409Z,78.29
2018-08-12T04:17:06.693Z,78.16
2018-08-12T04:19:34.053Z,78.11
2018-08-12T04:22:01.469Z,78.75
2018-08-12T04:24:28.788Z,77.87
2018-08-12T04:26:56.078Z,77.55
2018-08-12T04:29:23.298Z,77.52
2018-08-12T04:31:52.631Z,77.25
2018-08-12T04:34:20.408Z,77.28
2018-08-12T04:36:47.649Z,77.55
2018-08-12T04:39:14.983Z,77.36
2018-08-12T04:41:43.270Z,77.26
2018-08-12T04:44:10.893Z,77.38
2018-08-12T04:46:38.273Z,77.59
2018-08-12T04:49:06.125Z,77.61
2018-08-12T04:51:33.401Z,77.32
2018-08-12T04:54:01.637Z,77.01
2018-08-12T04:56:28.933Z,76.92
2018-08-12T04:58:56.215Z,77.24
2018-08-12T05:01:23.517Z,77.84
2018-08-12T05:03:51.557Z,77.01
2018-08-12T05:06:18.939Z,76.95
2018-08-12T05:08:46.305Z,76.77
2018-08-12T05:11:14.166Z,76.92
2018-08-12T05:13:41.538Z,76.92
2018-08-12T05:16:08.972Z,76.63
2018-08-12T05:18:36.377Z,76.68
2018-08-12T05:21:03.664Z,76.19
2018-08-12T05:23:30.937Z,76.24
2018-08-12T05:25:58.241Z,75.96
2018-08-12T05:28:26.191Z,75.14
2018-08-12T05:30:53.598Z,76.43
2018-08-12T05:33:20.847Z,76.24
2018-08-12T05:35:48.180Z,75.74
2018-08-12T05:38:15.452Z,74.71
2018-08-12T05:40:42.778Z,75.02
2018-08-12T05:43:10.137Z,75.30
2018-08-12T05:45:37.445Z,74.87
2018-08-12T05:48:05.218Z,75.35
2018-08-12T05:50:32.491Z,74.13
2018-08-12T05:52:59.797Z,73.06
2018-08-12T05:55:27.141Z,73.01
2018-08-12T05:57:54.425Z,73.14
2018-08-12T06:00:21.680Z,72.12
2018-08-12T06:02:49.091Z,72.18
2018-08-12T06:05:16.240Z,73.06
2018-08-12T06:07:43.624Z,72.18
2018-08-12T06:10:11.941Z,71.78
2018-08-12T06:12:39.949Z,71.80
2018-08-12T06:15:08.609Z,71.23
2018-08-12T06:17:35.853Z,71.22
2018-08-12T06:20:04.017Z,71.42
2018-08-12T06:22:32.048Z,71.79
2018-08-12T06:24:59.370Z,71.36
2018-08-12T06:27:26.776Z,69.63
2018-08-12T06:29:54.126Z,70.22
2018-08-12T06:32:21.485Z,70.35
2018-08-12T06:34:48.828Z,70.33
2018-08-12T06:37:16.173Z,70.90
2018-08-12T06:39:43.598Z,70.47
2018-08-12T06:42:10.975Z,70.53
2018-08-12T06:44:38.961Z,69.76
2018-08-12T06:47:06.343Z,69.20
2018-08-12T06:49:33.664Z,66.46
2018-08-12T06:52:01.011Z,67.51
2018-08-12T06:54:28.320Z,65.81
2018-08-12T06:56:57.090Z,67.00
2018-08-12T06:59:24.932Z,64.45
2018-08-12T07:01:52.244Z,64.29
2018-08-12T07:04:19.599Z,63.84
2018-08-12T07:06:46.932Z,64.76
2018-08-12T07:09:14.409Z,63.42
2018-08-12T07:11:41.726Z,64.20
2018-08-12T07:14:09.050Z,63.94
2018-08-12T07:16:36.953Z,63.00
2018-08-12T07:19:04.670Z,63.45
2018-08-12T07:21:32.041Z,63.76
2018-08-12T07:23:59.523Z,64.71
2018-08-12T07:26:27.022Z,62.77
2018-08-12T07:28:54.441Z,64.07
2018-08-12T07:31:21.835Z,63.35
2018-08-12T07:33:49.243Z,62.13
2018-08-12T07:36:16.622Z,63.06
2018-08-12T07:38:43.975Z,60.76
2018-08-12T07:41:11.342Z,60.97
2018-08-12T07:43:38.881Z,60.77
2018-08-12T07:46:06.412Z,60.79
2018-08-12T07:48:33.961Z,60.57
2018-08-12T07:51:01.649Z,60.74
2018-08-12T07:53:29.018Z,60.44
2018-08-12T07:55:56.445Z,58.76
2018-08-12T07:58:23.761Z,59.06
2018-08-12T08:00:51.053Z,58.38
2018-08-12T08:03:18.554Z,58.02
2018-08-12T08:05:45.998Z,58.09
2018-08-12T08:08:13.555Z,56.10
2018-08-12T08:10:40.963Z,56.36
2018-08-12T08:13:08.361Z,55.81
2018-08-12T08:15:35.835Z,56.10
2018-08-12T08:18:03.711Z,56.24
2018-08-12T08:20:31.072Z,56.09
2018-08-12T08:22:58.532Z,55.21
2018-08-12T08:25:26.055Z,55.24
2018-08-12T08:27:53.472Z,54.85
2018-08-12T08:30:20.929Z,54.60
2018-08-12T08:32:48.397Z,54.72
2018-08-12T08:35:15.657Z,55.18
2018-08-12T08:37:43.746Z,52.95
2018-08-12T08:40:15.981Z,53.42
2018-08-12T08:42:43.536Z,53.11
2018-08-12T08:45:15.073Z,52.56
2018-08-12T08:47:43.744Z,52.69
2018-08-12T08:50:11.137Z,52.57
2018-08-12T08:52:38.736Z,52.04
2018-08-12T08:55:07.776Z,50.48
2018-08-12T08:57:35.240Z,51.33
2018-08-12T09:00:03.199Z,50.53
2018-08-12T09:02:31.158Z,50.75
2018-08-12T09:04:58.839Z,51.20
2018-08-12T09:07:26.218Z,51.21
2018-08-12T09:09:53.568Z,50.82
2018-08-12T09:12:21.211Z,50.78
2018-08-12T09:14:48.563Z,49.46
2018-08-12T09:17:15.984Z,50.24
2018-08-12T09:19:43.450Z,49.86
2018-08-12T09:22:11.046Z,50.49
2018-08-12T09:24:38.570Z,49.53
2018-08-12T09:27:06.125Z,50.65
2018-08-12T09:29:33.635Z,49.74
2018-08-12T09:32:01.170Z,48.97
2018-08-12T09:34:28.569Z,48.98
2018-08-12T09:36:55.950Z,49.36
2018-08-12T09:39:23.351Z,49.94
2018-08-12T09:41:51.441Z,49.64
2018-08-12T09:44:19.502Z,49.30
2018-08-12T09:46:46.877Z,48.33
2018-08-12T09:49:14.285Z,48.05
2018-08-12T09:51:41.787Z,47.59
2018-08-12T09:54:09.257Z,48.10
2018-08-12T09:56:36.625Z,47.98
2018-08-12T09:59:03.985Z,47.49
2018-08-12T10:01:31.375Z,47.75
2018-08-12T10:03:58.840Z,47.59
2018-08-12T10:06:26.238Z,48.32
2018-08-12T10:08:53.706Z,48.29
2018-08-12T10:11:21.272Z,48.37
2018-08-12T10:13:48.625Z,47.99
2018-08-12T10:16:16.162Z,46.02
2018-08-12T10:18:43.914Z,45.53
2018-08-12T10:21:11.382Z,45.75
2018-08-12T10:23:38.798Z,43.34
2018-08-12T10:26:06.286Z,43.91
2018-08-12T10:28:33.612Z,43.69
2018-08-12T10:31:01.517Z,43.00
2018-08-12T10:33:28.925Z,44.49
2018-08-12T10:35:56.330Z,44.73
2018-08-12T10:38:23.656Z,45.72
2018-08-12T10:40:51.006Z,45.66
2018-08-12T10:43:19.142Z,43.58
2018-08-12T10:45:46.531Z,44.04
2018-08-12T10:48:14.038Z,43.66
2018-08-12T10:50:41.531Z,42.32
2018-08-12T10:53:08.844Z,44.49
2018-08-12T10:55:36.216Z,44.52
2018-08-12T10:58:04.153Z,44.30
2018-08-12T11:00:33.362Z,45.32
2018-08-12T11:03:00.850Z,45.67
2018-08-12T11:05:28.449Z,46.71
2018-08-12T11:07:57.388Z,46.17
2018-08-12T11:10:26.036Z,45.68
2018-08-12T11:12:53.651Z,45.70
2018-08-12T11:15:21.116Z,45.48
2018-08-12T11:17:48.784Z,44.10
2018-08-12T11:20:16.457Z,44.13
2018-08-12T11:22:43.879Z,43.51
2018-08-12T11:25:11.829Z,43.63
2018-08-12T11:27:39.275Z,45.04
2018-08-12T11:30:13.990Z,45.27
2018-08-12T11:32:41.502Z,43.07
2018-08-12T11:35:10.494Z,41.45
2018-08-12T11:37:38.100Z,37.28
2018-08-12T11:40:06.769Z,38.78
2018-08-12T11:42:34.293Z,38.75
2018-08-12T11:45:01.743Z,33.25
2018-08-12T11:47:29.337Z,30.40
2018-08-12T11:49:57.478Z,30.38
2018-08-12T11:52:25.769Z,28.75
2018-08-12T11:54:53.284Z,27.92
2018-08-12T11:57:20.611Z,27.99
2018-08-12T11:59:48.202Z,27.82
2018-08-12T12:02:15.556Z,25.97
2018-08-12T12:04:43.109Z,25.00
2018-08-12T12:07:10.575Z,26.47
2018-08-12T12:09:38.176Z,28.34
2018-08-12T12:12:05.523Z,26.59
2018-08-12T12:14:33.151Z,26.57
2018-08-12T12:17:00.628Z,27.03
2018-08-12T12:19:27.984Z,25.39
2018-08-12T12:21:55.438Z,26.57
2018-08-12T12:24:22.967Z,25.67
2018-08-12T12:26:50.256Z,24.36
2018-08-12T12:29:17.492Z,26.70
2018-08-12T12:31:44.805Z,27.18
2018-08-12T12:34:13.918Z,26.63
2018-08-12T12:36:41.958Z,26.58
2018-08-12T12:39:10.130Z,25.64
2018-08-12T12:41:37.836Z,24.18
2018-08-12T12:44:05.943Z,25.40
2018-08-12T12:46:33.445Z,28.01
2018-08-12T12:49:01.084Z,29.01
2018-08-12T12:51:28.673Z,30.37
2018-08-12T12:53:56.602Z,32.34
2018-08-12T12:56:23.943Z,31.35
2018-08-12T12:58:51.309Z,31.15
2018-08-12T13:01:19.356Z,32.21
2018-08-12T13:03:46.924Z,31.63
2018-08-12T13:06:14.908Z,32.62
2018-08-12T13:08:42.865Z,32.77
2018-08-12T13:11:13.342Z,32.27
2018-08-12T13:13:41.036Z,34.33
2018-08-12T13:16:09.419Z,32.40
2018-08-12T13:18:37.517Z,33.67
2018-08-12T13:21:05.162Z,33.27
2018-08-12T13:23:35.246Z,34.65
2018-08-12T13:26:02.721Z,34.79
2018-08-12T13:28:30.835Z,35.70
2018-08-12T13:31:00.226Z,34.69
2018-08-12T13:33:27.949Z,36.28
2018-08-12T13:35:55.775Z,37.45
2018-08-12T13:38:24.109Z,38.03
2018-08-12T13:40:51.524Z,35.30
2018-08-12T13:43:19.390Z,37.15
2018-08-12T13:45:47.038Z,36.49
2018-08-12T13:48:14.478Z,35.22
2018-08-12T13:50:41.876Z,37.96
2018-08-12T13:53:09.410Z,35.86
2018-08-12T13:55:36.884Z,38.35
2018-08-12T13:58:04.819Z,38.08
2018-08-12T14:00:33.808Z,38.81
2018-08-12T14:03:01.262Z,38.77
2018-08-12T14:05:32.625Z,35.77
2018-08-12T14:07:59.992Z,38.42
2018-08-12T14:10:27.434Z,39.13
2018-08-12T14:12:55.012Z,37.66
2018-08-12T14:15:23.878Z,36.81
2018-08-12T14:17:51.285Z,37.87
2018-08-12T14:20:19.900Z,37.13
2018-08-12T14:22:48.178Z,37.70
2018-08-12T14:25:15.981Z,37.07
2018-08-12T14:27:44.086Z,39.73
2018-08-12T14:30:15.396Z,38.31
2018-08-12T14:32:45.281Z,38.37
2018-08-12T14:35:13.569Z,38.16
2018-08-12T14:37:41.093Z,37.85
2018-08-12T14:40:10.165Z,38.27
2018-08-12T14:42:38.599Z,38.12
2018-08-12T14:45:07.897Z,38.68
2018-08-12T14:47:36.173Z,38.88
2018-08-12T14:50:05.490Z,38.09
2018-08-12T14:52:33.030Z,38.60
2018-08-12T14:55:00.730Z,39.93
2018-08-12T14:57:28.418Z,40.67
2018-08-12T14:59:55.741Z,41.02
2018-08-12T15:02:23.783Z,41.05
2018-08-12T15:04:51.802Z,42.17
2018-08-12T15:07:19.522Z,40.27
2018-08-12T15:09:46.876Z,39.42
2018-08-12T15:12:14.481Z,40.39
2018-08-12T15:14:42.025Z,41.49
2018-08-12T15:17:09.942Z,41.28
2018-08-12T15:19:38.548Z,41.54
2018-08-12T15:22:08.538Z,40.67
2018-08-12T15:24:36.283Z,42.05
2018-08-12T15:27:04.918Z,43.45
2018-08-12T15:29:32.932Z,42.21
2018-08-12T15:32:00.563Z,41.77
2018-08-12T15:34:29.299Z,41.67
2018-08-12T15:36:57.806Z,43.35
2018-08-12T15:39:26.463Z,42.18
2018-08-12T15:41:53.879Z,42.24
2018-08-12T15:44:21.377Z,42.40
2018-08-12T15:46:49.113Z,42.13
2018-08-12T15:49:18.137Z,42.67
2018-08-12T15:51:46.500Z,42.25
2018-08-12T15:54:15.052Z,41.63
2018-08-12T15:56:43.562Z,41.81
2018-08-12T15:59:11.049Z,42.20
2018-08-12T16:01:38.470Z,43.52
2018-08-12T16:04:05.961Z,44.34
2018-08-12T16:06:33.349Z,43.87
2018-08-12T16:09:00.842Z,43.63
2018-08-12T16:11:28.171Z,42.42
2018-08-12T16:13:55.536Z,42.31
2018-08-12T16:16:22.967Z,43.45
2018-08-12T16:18:50.431Z,43.33
2018-08-12T16:21:17.848Z,43.35
2018-08-12T16:23:45.642Z,43.66
2018-08-12T16:26:13.682Z,44.26
2018-08-12T16:28:41.475Z,43.83
2018-08-12T16:31:09.300Z,44.36
2018-08-12T16:33:36.641Z,44.23
2018-08-12T16:36:04.003Z,44.21
2018-08-12T16:38:33.098Z,44.55
2018-08-12T16:41:00.886Z,45.03
2018-08-12T16:43:29.203Z,45.70
2018-08-12T16:45:56.645Z,44.93
2018-08-12T16:48:25.379Z,46.03
2018-08-12T16:50:54.261Z,45.81
2018-08-12T16:53:22.119Z,46.23
2018-08-12T16:55:49.865Z,46.54
2018-08-12T16:58:18.907Z,46.33
2018-08-12T17:00:47.328Z,47.89
2018-08-12T17:03:15.778Z,47.91
2018-08-12T17:05:43.129Z,48.20
2018-08-12T17:08:11.000Z,48.76
2018-08-12T17:10:40.874Z,49.03
2018-08-12T17:13:09.330Z,49.98
2018-08-12T17:15:38.726Z,49.75
2018-08-12T17:18:06.673Z,51.20
2018-08-12T17:20:34.064Z,50.45
2018-08-12T17:23:01.451Z,50.55
2018-08-12T17:25:29.731Z,50.66
2018-08-12T17:27:57.395Z,51.38
2018-08-12T17:30:24.814Z,51.40
2018-08-12T17:32:53.123Z,51.28
2018-08-12T17:35:20.864Z,51.57
2018-08-12T17:37:48.938Z,52.06
2018-08-12T17:40:16.765Z,52.80
2018-08-12T17:42:44.114Z,53.01
2018-08-12T17:45:13.667Z,64.14
2018-08-12T17:47:41.624Z,62.05
2018-08-12T17:50:10.605Z,57.20
2018-08-12T17:52:38.057Z,56.86
2018-08-12T17:55:06.686Z,56.65
2018-08-12T17:57:34.162Z,55.67
2018-08-12T18:00:02.034Z,55.89
2018-08-12T18:02:29.937Z,55.95
2018-08-12T18:04:57.712Z,56.15
2018-08-12T18:07:25.173Z,56.33
2018-08-12T18:09:52.561Z,56.31
2018-08-12T18:12:21.889Z,56.07
2018-08-12T18:14:49.253Z,55.67
2018-08-12T18:17:16.642Z,55.85
2018-08-12T18:19:44.502Z,55.58
2018-08-12T18:22:11.883Z,56.00
2018-08-12T18:24:39.271Z,55.85
2018-08-12T18:27:06.779Z,56.14
2018-08-12T18:29:34.232Z,56.24
2018-08-12T18:32:01.599Z,56.36
2018-08-12T18:34:29.590Z,56.88
2018-08-12T18:36:57.000Z,57.15
2018-08-12T18:39:25.868Z,57.83
2018-08-12T18:41:54.176Z,57.41
2018-08-12T18:44:21.517Z,57.75
2018-08-12T18:46:48.861Z,57.55
2018-08-12T18:49:16.647Z,58.00
2018-08-12T18:51:45.664Z,58.65
2018-08-12T18:54:13.006Z,58.52
2018-08-12T18:56:40.834Z,58.98
2018-08-12T18:59:08.148Z,58.40
2018-08-12T19:01:35.614Z,59.14
2018-08-12T19:04:04.421Z,59.76
2018-08-12T19:06:33.072Z,59.79
2018-08-12T19:09:00.461Z,59.60
2018-08-12T19:11:29.755Z,59.43
2018-08-12T19:13:58.094Z,59.89
2018-08-12T19:16:25.438Z,59.74
2018-08-12T19:18:52.757Z,60.38
2018-08-12T19:21:20.982Z,60.15
2018-08-12T19:23:49.129Z,60.03
2018-08-12T19:26:16.510Z,60.04
2018-08-12T19:28:44.054Z,60.42
2018-08-12T19:31:11.428Z,60.41
2018-08-12T19:33:39.510Z,60.95
2018-08-12T19:36:07.501Z,61.62
2018-08-12T19:38:35.125Z,61.45
2018-08-12T19:41:02.910Z,61.17
2018-08-12T19:43:32.089Z,61.47
2018-08-12T19:45:59.654Z,61.44
2018-08-12T19:48:27.858Z,61.14
2018-08-12T19:50:55.846Z,61.60
2018-08-12T19:53:23.903Z,62.24
2018-08-12T19:55:51.467Z,62.12
2018-08-12T19:58:19.135Z,62.05
2018-08-12T20:00:49.905Z,62.08
2018-08-12T20:03:17.519Z,62.24
2018-08-12T20:05:45.180Z,62.51
2018-08-12T20:08:12.716Z,62.80
2018-08-12T20:10:40.487Z,62.66
2018-08-12T20:13:08.094Z,62.87
2018-08-12T20:15:35.916Z,62.97
2018-08-12T20:18:03.631Z,64.26
2018-08-12T20:20:31.717Z,63.67
2018-08-12T20:22:59.098Z,64.28
2018-08-12T20:25:27.202Z,63.77
2018-08-12T20:27:54.673Z,63.57
2018-08-12T20:30:22.022Z,63.79
2018-08-12T20:32:49.331Z,63.88
2018-08-12T20:35:16.852Z,63.57
2018-08-12T20:37:44.938Z,63.53
2018-08-12T20:40:13.451Z,63.48
2018-08-12T20:42:40.867Z,63.52
2018-08-12T20:45:08.527Z,63.78
2018-08-12T20:47:36.074Z,64.61
2018-08-12T20:50:04.323Z,63.94
2018-08-12T20:52:31.806Z,64.47
2018-08-12T20:54:59.145Z,66.22
2018-08-12T20:57:26.706Z,65.54
2018-08-12T20:59:54.356Z,65.10
2018-08-12T21:02:21.688Z,65.42
2018-08-12T21:04:49.306Z,65.36
2018-08-12T21:07:16.868Z,65.33
2018-08-12T21:09:44.115Z,64.91
2018-08-12T21:12:11.559Z,64.92
2018-08-12T21:14:38.772Z,64.81
2018-08-12T21:17:06.138Z,65.54
2018-08-12T21:19:33.575Z,66.19
2018-08-12T21:22:00.962Z,65.21
2018-08-12T21:24:28.273Z,65.71
2018-08-12T21:26:55.606Z,65.26
2018-08-12T21:29:23.074Z,65.15
2018-08-12T21:31:50.489Z,66.25
2018-08-12T21:34:18.027Z,66.17
2018-08-12T21:36:45.621Z,65.35
2018-08-12T21:39:13.833Z,65.66
2018-08-12T21:41:41.847Z,65.77
2018-08-12T21:44:09.417Z,65.70
2018-08-12T21:46:37.350Z,65.82
2018-08-12T21:49:05.641Z,65.95
2018-08-12T21:51:33.316Z,65.96
2018-08-12T21:54:01.710Z,66.17
2018-08-12T21:56:29.043Z,66.28
2018-08-12T21:58:57.083Z,66.14
2018-08-12T22:01:24.429Z,66.20
2018-08-12T22:03:52.297Z,66.42
2018-08-12T22:06:20.260Z,66.34
2018-08-12T22:08:47.530Z,66.39
2018-08-12T22:11:14.813Z,66.30
2018-08-12T22:13:42.262Z,66.46
2018-08-12T22:16:09.564Z,66.54
2018-08-12T22:18:36.936Z,66.29
2018-08-12T22:21:04.181Z,66.52
2018-08-12T22:23:31.601Z,66.90
2018-08-12T22:25:58.961Z,66.59
2018-08-12T22:28:27.331Z,67.04
2018-08-12T22:30:54.678Z,67.21
2018-08-12T22:33:21.998Z,66.93
2018-08-12T22:35:49.356Z,66.58
2018-08-12T22:38:16.699Z,66.28
2018-08-12T22:40:44.156Z,65.96
2018-08-12T22:43:11.515Z,66.01
2018-08-12T22:45:39.094Z,66.64
2018-08-12T22:48:06.682Z,67.11
2018-08-12T22:50:33.968Z,68.11
2018-08-12T22:53:01.455Z,68.49
2018-08-12T22:55:29.223Z,67.56
2018-08-12T22:57:56.775Z,67.10
2018-08-12T23:00:24.307Z,66.53
2018-08-12T23:02:52.328Z,67.95
2018-08-12T23:05:19.798Z,66.78
2018-08-12T23:07:47.305Z,68.72
2018-08-12T23:10:14.626Z,67.40
2018-08-12T23:12:41.951Z,66.63
2018-08-12T23:15:21.134Z,65.83
2018-08-12T23:17:48.555Z,65.02
2018-08-12T23:20:16.024Z,65.74
2018-08-12T23:22:43.356Z,64.67
2018-08-12T23:25:10.872Z,65.38
2018-08-12T23:27:38.240Z,66.18
2018-08-12T23:30:06.180Z,65.78
2018-08-12T23:32:33.678Z,65.08
2018-08-12T23:35:01.009Z,64.59
2018-08-12T23:37:28.574Z,64.77
2018-08-12T23:39:55.943Z,64.25
2018-08-12T23:42:23.806Z,64.55
2018-08-12T23:44:51.166Z,64.13
2018-08-12T23:47:18.594Z,63.84
2018-08-12T23:49:46.103Z,63.63
2018-08-12T23:52:13.504Z,63.37
2018-08-12T23:54:40.960Z,63.52
2018-08-12T23:57:08.490Z,64.00
2018-08-12T23:59:35.843Z,64.81
